createdAt,value
2024-02-24T00:01:13.299Z,8.97
2024-02-24T00:03:41.590Z,9.03
2024-02-24T00:06:10.241Z,7.07
2024-02-24T00:08:38.898Z,6.13
2024-02-24T00:11:07.472Z,7.20
2024-02-24T00:13:35.958Z,7.67
2024-02-24T00:16:06.137Z,5.53
2024-02-24T00:18:35.951Z,8.93
2024-02-24T00:21:04.403Z,5.10
2024-02-24T00:23:32.681Z,7.23
2024-02-24T00:26:01.035Z,6.23
2024-02-24T00:28:29.290Z,8.10
2024-02-24T00:30:57.633Z,7.57
2024-02-24T00:33:26.083Z,7.30
2024-02-24T00:35:55.773Z,5.90
2024-02-24T00:38:24.114Z,6.27
2024-02-24T00:40:52.423Z,6.83
2024-02-24T00:43:20.728Z,6.57
2024-02-24T00:45:49.087Z,5.63
2024-02-24T00:48:17.355Z,4.57
2024-02-24T00:50:45.898Z,5.90
2024-02-24T00:53:15.624Z,6.60
2024-02-24T00:55:43.904Z,4.90
2024-02-24T00:58:12.259Z,5.57
2024-02-24T01:00:40.651Z,5.17
2024-02-24T01:03:09.016Z,5.73
2024-02-24T01:05:37.375Z,5.40
2024-02-24T01:08:06.449Z,4.53
2024-02-24T01:10:36.433Z,4.93
2024-02-24T01:13:05.258Z,4.83
2024-02-24T01:15:34.602Z,5.30
2024-02-24T01:18:04.475Z,6.00
2024-02-24T01:20:33.025Z,6.20
2024-02-24T01:23:01.712Z,5.47
2024-02-24T01:25:30.198Z,6.60
2024-02-24T01:27:59.985Z,6.40
2024-02-24T01:30:28.375Z,5.80
2024-02-24T01:32:57.000Z,5.80
2024-02-24T01:35:25.799Z,5.13
2024-02-24T01:37:54.137Z,5.17
2024-02-24T01:40:22.545Z,5.90
2024-02-24T01:42:50.999Z,5.87
2024-02-24T01:45:20.885Z,6.33
2024-02-24T01:47:51.211Z,5.07
2024-02-24T01:50:19.760Z,4.33
2024-02-24T01:52:50.370Z,6.67
2024-02-24T01:55:20.297Z,5.90
2024-02-24T01:57:52.666Z,4.53
2024-02-24T02:00:22.767Z,6.30
2024-02-24T02:02:51.710Z,5.80
2024-02-24T02:05:20.391Z,4.70
2024-02-24T02:07:48.918Z,6.37
2024-02-24T02:10:17.412Z,6.43
2024-02-24T02:12:46.106Z,6.30
2024-02-24T02:15:14.609Z,5.77
2024-02-24T02:17:44.586Z,5.53
2024-02-24T02:20:13.134Z,3.43
2024-02-24T02:22:42.782Z,6.23
2024-02-24T02:25:12.198Z,7.77
2024-02-24T02:27:40.435Z,6.57
2024-02-24T02:30:09.874Z,6.27
2024-02-24T02:32:38.256Z,5.80
2024-02-24T02:35:07.661Z,6.57
2024-02-24T02:37:35.953Z,6.80
2024-02-24T02:40:06.495Z,5.60
2024-02-24T02:42:35.680Z,6.03
2024-02-24T02:45:04.507Z,7.53
2024-02-24T02:47:33.081Z,6.30
2024-02-24T02:50:01.522Z,5.43
2024-02-24T02:52:29.839Z,5.37
2024-02-24T02:54:58.104Z,6.70
2024-02-24T02:57:27.977Z,7.03
2024-02-24T02:59:56.317Z,6.87
2024-02-24T03:02:24.831Z,7.80
2024-02-24T03:04:53.120Z,7.17
2024-02-24T03:07:21.500Z,7.23
2024-02-24T03:09:49.855Z,6.27
2024-02-24T03:12:18.469Z,7.40
2024-02-24T03:14:48.348Z,8.60
2024-02-24T03:17:16.742Z,6.47
2024-02-24T03:19:45.051Z,6.40
2024-02-24T03:22:13.467Z,7.80
2024-02-24T03:24:43.400Z,5.67
2024-02-24T03:27:12.681Z,7.30
2024-02-24T03:29:41.204Z,8.13
2024-02-24T03:32:11.633Z,7.00
2024-02-24T03:34:40.561Z,7.30
2024-02-24T03:37:08.956Z,7.17
2024-02-24T03:39:39.291Z,9.17
2024-02-24T03:42:07.694Z,6.13
2024-02-24T03:44:36.184Z,7.77
2024-02-24T03:47:04.667Z,6.83
2024-02-24T03:49:34.678Z,5.37
2024-02-24T03:52:03.148Z,6.03
2024-02-24T03:54:31.538Z,7.07
2024-02-24T03:56:59.924Z,6.63
2024-02-24T03:59:28.366Z,9.50
2024-02-24T04:01:56.708Z,8.90
2024-02-24T04:04:25.230Z,9.60
2024-02-24T04:06:55.058Z,7.13
2024-02-24T04:09:23.522Z,8.07
2024-02-24T04:11:53.523Z,9.77
2024-02-24T04:14:22.107Z,8.13
2024-02-24T04:16:50.522Z,6.40
2024-02-24T04:19:19.077Z,8.60
2024-02-24T04:21:47.392Z,8.20
2024-02-24T04:24:17.249Z,8.30
2024-02-24T04:26:45.653Z,7.33
2024-02-24T04:29:14.119Z,8.03
2024-02-24T04:31:42.642Z,8.53
2024-02-24T04:34:11.098Z,8.43
2024-02-24T04:36:42.462Z,7.13
2024-02-24T04:39:10.942Z,7.00
2024-02-24T04:41:40.841Z,7.40
2024-02-24T04:44:09.349Z,7.77
2024-02-24T04:46:39.667Z,10.23
2024-02-24T04:49:09.976Z,9.53
2024-02-24T04:51:38.549Z,7.87
2024-02-24T04:54:06.960Z,6.37
2024-02-24T04:56:35.474Z,7.73
2024-02-24T04:59:05.410Z,10.20
2024-02-24T05:01:33.798Z,8.17
2024-02-24T05:04:02.178Z,6.17
2024-02-24T05:06:30.986Z,6.90
2024-02-24T05:08:59.532Z,8.37
2024-02-24T05:11:28.206Z,6.23
2024-02-24T05:13:56.622Z,6.27
2024-02-24T05:16:26.450Z,6.20
2024-02-24T05:18:54.969Z,5.03
2024-02-24T05:21:23.831Z,7.40
2024-02-24T05:23:52.232Z,4.73
2024-02-24T05:26:26.899Z,6.20
2024-02-24T05:28:55.663Z,7.40
2024-02-24T05:31:24.755Z,6.20
2024-02-24T05:33:56.177Z,5.57
2024-02-24T05:36:25.330Z,6.07
2024-02-24T05:38:53.778Z,7.77
2024-02-24T05:41:22.284Z,5.70
2024-02-24T05:43:50.706Z,6.80
2024-02-24T05:46:19.183Z,5.30
2024-02-24T05:48:47.864Z,6.87
2024-02-24T05:51:18.535Z,5.37
2024-02-24T05:53:47.072Z,6.93
2024-02-24T05:56:15.669Z,7.90
2024-02-24T05:58:44.118Z,5.70
2024-02-24T06:01:12.601Z,6.90
2024-02-24T06:03:41.137Z,6.27
2024-02-24T06:06:09.879Z,5.10
2024-02-24T06:08:39.946Z,6.17
2024-02-24T06:11:08.695Z,5.13
2024-02-24T06:13:37.228Z,7.20
2024-02-24T06:16:06.266Z,6.27
2024-02-24T06:18:34.721Z,4.60
2024-02-24T06:21:04.265Z,5.63
2024-02-24T06:23:32.884Z,5.97
2024-02-24T06:26:02.723Z,4.97
2024-02-24T06:28:31.242Z,9.73
2024-02-24T06:30:59.644Z,6.70
2024-02-24T06:33:28.123Z,6.93
2024-02-24T06:35:56.704Z,5.00
2024-02-24T06:38:25.178Z,5.97
2024-02-24T06:40:53.561Z,6.43
2024-02-24T06:43:23.567Z,6.20
2024-02-24T06:45:52.194Z,7.60
2024-02-24T06:48:20.825Z,5.40
2024-02-24T06:50:59.575Z,6.50
2024-02-24T06:53:30.320Z,6.73
2024-02-24T06:55:58.781Z,9.23
2024-02-24T06:58:31.037Z,8.27
2024-02-24T07:01:15.675Z,6.77
2024-02-24T07:04:09.329Z,7.40
2024-02-24T07:06:49.836Z,6.77
2024-02-24T07:09:39.902Z,5.13
2024-02-24T07:12:28.876Z,8.50
2024-02-24T07:15:08.478Z,8.47
2024-02-24T07:17:50.353Z,7.10
2024-02-24T07:21:41.722Z,5.93
2024-02-24T07:23:38.430Z,7.27
2024-02-24T07:26:13.235Z,7.03
2024-02-24T07:28:49.600Z,9.20
2024-02-24T07:31:28.386Z,8.90
2024-02-24T07:34:04.650Z,5.23
2024-02-24T07:36:48.352Z,8.03
2024-02-24T07:39:30.240Z,6.87
2024-02-24T07:42:04.186Z,6.33
2024-02-24T07:45:06.935Z,7.03
2024-02-24T07:47:39.863Z,6.27
2024-02-24T07:50:09.823Z,7.17
2024-02-24T07:52:39.305Z,8.20
2024-02-24T07:55:08.768Z,5.40
2024-02-24T07:57:37.302Z,6.30
2024-02-24T08:00:07.201Z,9.43
2024-02-24T08:02:37.634Z,8.23
2024-02-24T08:05:08.249Z,9.20
2024-02-24T08:07:36.779Z,9.07
2024-02-24T08:10:05.605Z,5.13
2024-02-24T08:12:34.301Z,6.80
2024-02-24T08:15:02.929Z,8.43
2024-02-24T08:17:32.181Z,9.03
2024-02-24T08:20:00.900Z,7.73
2024-02-24T08:22:30.753Z,8.17
2024-02-24T08:24:59.283Z,6.27
2024-02-24T08:27:27.834Z,9.57
2024-02-24T08:29:56.604Z,10.03
2024-02-24T08:32:25.179Z,7.77
2024-02-24T08:34:53.714Z,7.63
2024-02-24T08:37:22.181Z,10.07
2024-02-24T08:39:51.915Z,6.30
2024-02-24T08:42:20.251Z,7.67
2024-02-24T08:44:48.567Z,9.07
2024-02-24T08:47:17.130Z,6.63
2024-02-24T08:49:45.576Z,7.67
2024-02-24T08:52:13.913Z,6.57
2024-02-24T08:54:42.284Z,6.37
2024-02-24T08:57:12.019Z,9.07
2024-02-24T08:59:40.680Z,7.83
2024-02-24T09:02:09.157Z,7.97
2024-02-24T09:04:40.201Z,8.80
2024-02-24T09:07:09.001Z,10.80
2024-02-24T09:09:37.443Z,6.07
2024-02-24T09:12:06.457Z,6.20
2024-02-24T09:14:36.121Z,7.67
2024-02-24T09:17:05.186Z,7.10
2024-02-24T09:19:33.478Z,8.50
2024-02-24T09:22:01.868Z,9.40
2024-02-24T09:24:30.372Z,8.00
2024-02-24T09:26:58.776Z,7.63
2024-02-24T09:29:27.777Z,8.83
2024-02-24T09:31:57.540Z,8.80
2024-02-24T09:34:26.054Z,9.33
2024-02-24T09:36:56.152Z,8.50
2024-02-24T09:39:24.670Z,9.57
2024-02-24T09:41:53.110Z,7.27
2024-02-24T09:44:21.609Z,10.10
2024-02-24T09:46:51.978Z,9.07
2024-02-24T09:49:23.109Z,9.20
2024-02-24T09:51:51.549Z,9.57
2024-02-24T09:54:20.232Z,7.93
2024-02-24T09:56:49.555Z,10.50
2024-02-24T09:59:19.214Z,16.47
2024-02-24T10:01:49.453Z,9.60
2024-02-24T10:04:18.269Z,9.73
2024-02-24T10:06:51.740Z,11.47
2024-02-24T10:09:20.134Z,10.30
2024-02-24T10:12:10.652Z,11.17
2024-02-24T10:14:39.203Z,14.23
2024-02-24T10:17:07.652Z,11.37
2024-02-24T10:19:36.982Z,11.30
2024-02-24T10:22:08.233Z,11.60
2024-02-24T10:24:36.667Z,11.30
2024-02-24T10:27:05.818Z,9.00
2024-02-24T10:29:34.452Z,10.67
2024-02-24T10:32:05.649Z,10.10
2024-02-24T10:34:36.963Z,11.53
2024-02-24T10:37:11.427Z,10.97
2024-02-24T10:39:41.445Z,7.73
2024-02-24T10:42:10.412Z,7.83
2024-02-24T10:44:42.265Z,3.97
2024-02-24T10:47:18.961Z,7.83
2024-02-24T10:49:47.468Z,6.20
2024-02-24T10:52:19.599Z,3.63
2024-02-24T10:54:50.491Z,5.10
2024-02-24T10:57:20.888Z,6.13
2024-02-24T10:59:50.489Z,5.37
2024-02-24T11:02:19.032Z,6.47
2024-02-24T11:04:47.805Z,4.80
2024-02-24T11:07:32.615Z,4.30
2024-02-24T11:10:01.149Z,7.20
2024-02-24T11:12:32.428Z,4.57
2024-02-24T11:15:01.876Z,5.83
2024-02-24T11:17:52.877Z,4.67
2024-02-24T11:20:56.693Z,5.70
2024-02-24T11:23:27.682Z,4.53
2024-02-24T11:26:30.687Z,8.03
2024-02-24T11:29:03.970Z,7.80
2024-02-24T11:31:35.205Z,5.87
2024-02-24T11:34:09.123Z,5.70
2024-02-24T11:36:39.889Z,4.97
2024-02-24T11:39:12.692Z,4.60
2024-02-24T11:41:42.120Z,5.37
2024-02-24T11:44:12.257Z,5.60
2024-02-24T11:46:46.975Z,3.73
2024-02-24T11:49:23.590Z,4.77
2024-02-24T11:51:53.217Z,4.23
2024-02-24T11:54:23.588Z,4.03
2024-02-24T11:56:52.806Z,5.33
2024-02-24T11:59:21.704Z,5.60
2024-02-24T12:01:50.092Z,5.43
2024-02-24T12:04:26.406Z,4.07
2024-02-24T12:06:55.224Z,3.60
2024-02-24T12:09:25.252Z,4.70
2024-02-24T12:11:56.664Z,4.70
2024-02-24T12:14:29.486Z,5.03
2024-02-24T12:16:58.949Z,5.07
2024-02-24T12:19:31.893Z,4.20
2024-02-24T12:22:00.509Z,5.70
2024-02-24T12:24:30.833Z,4.17
2024-02-24T12:27:02.773Z,3.77
2024-02-24T12:29:31.893Z,5.57
2024-02-24T12:32:00.353Z,4.77
2024-02-24T12:34:29.163Z,4.13
2024-02-24T12:36:57.834Z,7.00
2024-02-24T12:39:26.711Z,4.87
2024-02-24T12:41:56.472Z,4.23
2024-02-24T12:44:24.844Z,5.23
2024-02-24T12:46:53.166Z,4.53
2024-02-24T12:49:21.614Z,3.47
2024-02-24T12:51:53.457Z,4.33
2024-02-24T12:54:21.790Z,4.17
2024-02-24T12:56:50.207Z,5.00
2024-02-24T12:59:22.407Z,4.97
2024-02-24T13:01:50.950Z,6.37
2024-02-24T13:04:19.382Z,5.77
2024-02-24T13:06:47.822Z,5.20
2024-02-24T13:09:16.289Z,4.47
2024-02-24T13:11:44.964Z,4.00
2024-02-24T13:14:13.338Z,5.07
2024-02-24T13:16:43.161Z,4.63
2024-02-24T13:19:11.686Z,5.90
2024-02-24T13:21:40.951Z,5.30
2024-02-24T13:24:13.193Z,5.93
2024-02-24T13:26:45.694Z,3.87
2024-02-24T13:29:14.984Z,5.03
2024-02-24T13:31:49.346Z,6.53
2024-02-24T13:34:17.774Z,5.50
2024-02-24T13:36:46.169Z,6.40
2024-02-24T13:39:14.607Z,5.63
2024-02-24T13:41:43.243Z,5.70
2024-02-24T13:44:13.969Z,4.80
2024-02-24T13:46:43.448Z,4.07
2024-02-24T13:49:13.579Z,5.77
2024-02-24T13:51:42.374Z,4.57
2024-02-24T13:54:10.707Z,3.97
2024-02-24T13:56:39.596Z,7.23
2024-02-24T13:59:08.206Z,4.63
2024-02-24T14:01:36.837Z,4.70
2024-02-24T14:04:05.380Z,5.17
2024-02-24T14:06:36.048Z,4.63
2024-02-24T14:09:08.029Z,4.97
2024-02-24T14:11:37.006Z,4.13
2024-02-24T14:14:05.515Z,5.50
2024-02-24T14:16:34.670Z,3.03
2024-02-24T14:19:04.008Z,3.87
2024-02-24T14:21:33.967Z,4.13
2024-02-24T14:24:04.898Z,3.53
2024-02-24T14:26:33.593Z,3.70
2024-02-24T14:29:02.834Z,4.00
2024-02-24T14:31:32.815Z,4.27
2024-02-24T14:34:02.675Z,3.73
2024-02-24T14:36:31.896Z,2.30
2024-02-24T14:39:01.990Z,3.47
2024-02-24T14:41:30.404Z,4.60
2024-02-24T14:43:58.617Z,4.90
2024-02-24T14:46:26.958Z,6.00
2024-02-24T14:48:55.378Z,4.10
2024-02-24T14:51:23.918Z,4.40
2024-02-24T14:53:53.255Z,5.53
2024-02-24T14:56:23.123Z,4.97
2024-02-24T14:58:51.452Z,5.50
2024-02-24T15:01:20.044Z,4.03
2024-02-24T15:03:48.930Z,4.30
2024-02-24T15:06:18.049Z,3.93
2024-02-24T15:08:46.384Z,5.20
2024-02-24T15:11:14.865Z,3.90
2024-02-24T15:13:44.590Z,6.30
2024-02-24T15:16:12.957Z,5.20
2024-02-24T15:18:41.845Z,4.13
2024-02-24T15:21:10.510Z,4.40
2024-02-24T15:23:43.410Z,3.30
2024-02-24T15:26:13.387Z,4.00
2024-02-24T15:28:41.760Z,3.47
2024-02-24T15:31:11.608Z,3.03
2024-02-24T15:33:40.072Z,3.70
2024-02-24T15:36:09.541Z,2.43
2024-02-24T15:38:37.946Z,5.67
2024-02-24T15:41:06.465Z,4.70
2024-02-24T15:43:34.759Z,3.43
2024-02-24T15:46:03.256Z,3.27
2024-02-24T15:48:32.962Z,5.63
2024-02-24T15:51:01.540Z,4.47
2024-02-24T15:53:29.910Z,5.90
2024-02-24T15:55:59.073Z,6.47
2024-02-24T15:58:27.362Z,6.37
2024-02-24T16:00:55.753Z,3.13
2024-02-24T16:03:24.157Z,4.50
2024-02-24T16:05:54.033Z,4.27
2024-02-24T16:08:22.412Z,4.60
2024-02-24T16:10:52.326Z,4.07
2024-02-24T16:13:20.716Z,6.27
2024-02-24T16:15:49.445Z,3.67
2024-02-24T16:18:18.043Z,4.00
2024-02-24T16:20:46.507Z,4.33
2024-02-24T16:23:17.097Z,4.87
2024-02-24T16:25:45.822Z,4.33
2024-02-24T16:28:14.601Z,4.07
2024-02-24T16:30:43.115Z,3.60
2024-02-24T16:33:13.220Z,5.27
2024-02-24T16:35:43.545Z,3.70
2024-02-24T16:38:13.821Z,4.63
2024-02-24T16:40:44.353Z,5.13
2024-02-24T16:43:13.564Z,9.47
2024-02-24T16:48:00.157Z,5.47
2024-02-24T16:50:53.385Z,7.37
2024-02-24T16:53:22.176Z,6.73
2024-02-24T16:55:50.818Z,5.30
2024-02-24T16:58:19.180Z,4.97
2024-02-24T17:00:47.587Z,13.53
2024-02-24T17:03:17.390Z,61.13
2024-02-24T17:05:46.008Z,67.73
2024-02-24T17:08:16.928Z,40.50
2024-02-24T17:10:46.921Z,29.80
2024-02-24T17:13:15.507Z,22.63
2024-02-24T17:15:44.261Z,14.20
2024-02-24T17:18:18.456Z,11.67
2024-02-24T17:20:51.668Z,16.33
2024-02-24T17:23:20.168Z,13.03
2024-02-24T17:25:48.669Z,10.60
2024-02-24T17:28:17.058Z,9.83
2024-02-24T17:30:45.626Z,11.17
2024-02-24T17:33:14.237Z,9.73
2024-02-24T17:35:43.805Z,9.03
2024-02-24T17:38:13.726Z,9.17
2024-02-24T17:40:42.228Z,6.60
2024-02-24T17:43:10.789Z,8.13
2024-02-24T17:45:39.811Z,56.57
2024-02-24T17:48:09.189Z,61.00
2024-02-24T17:50:37.853Z,27.83
2024-02-24T17:53:06.470Z,16.53
2024-02-24T17:55:36.408Z,13.03
2024-02-24T17:58:05.234Z,12.27
2024-02-24T18:00:34.576Z,10.67
2024-02-24T18:03:03.940Z,15.87
2024-02-24T18:05:32.570Z,13.53
2024-02-24T18:08:01.564Z,10.67
2024-02-24T18:10:30.702Z,10.90
2024-02-24T18:13:00.616Z,8.47
2024-02-24T18:15:29.176Z,7.13
2024-02-24T18:17:57.854Z,9.13
2024-02-24T18:20:26.499Z,9.77
2024-02-24T18:22:54.921Z,9.77
2024-02-24T18:25:23.369Z,9.23
2024-02-24T18:27:52.789Z,9.80
2024-02-24T18:30:22.612Z,11.07
2024-02-24T18:32:50.084Z,8.67
2024-02-24T18:35:18.635Z,9.73
2024-02-24T18:37:47.020Z,11.03
2024-02-24T18:40:15.417Z,12.30
2024-02-24T18:42:43.750Z,10.70
2024-02-24T18:45:13.266Z,11.40
2024-02-24T18:47:43.074Z,9.33
2024-02-24T18:50:12.270Z,11.27
2024-02-24T18:52:40.700Z,10.23
2024-02-24T18:55:09.869Z,9.57
2024-02-24T18:58:53.566Z,12.10
2024-02-24T19:01:22.452Z,15.33
2024-02-24T19:03:52.834Z,21.47
2024-02-24T19:06:23.016Z,17.07
2024-02-24T19:08:51.942Z,14.50
2024-02-24T19:11:21.021Z,11.07
2024-02-24T19:13:49.887Z,13.23
2024-02-24T19:16:18.833Z,13.73
2024-02-24T19:18:50.354Z,11.27
2024-02-24T19:21:21.185Z,9.73
2024-02-24T19:23:51.036Z,8.20
2024-02-24T19:26:20.007Z,9.27
2024-02-24T19:28:48.738Z,8.93
2024-02-24T19:31:17.752Z,8.90
2024-02-24T19:33:47.636Z,7.67
2024-02-24T19:36:16.638Z,6.70
2024-02-24T19:38:47.060Z,7.60
2024-02-24T19:41:16.117Z,7.60
2024-02-24T19:43:44.936Z,12.17
2024-02-24T19:46:16.023Z,13.20
2024-02-24T19:48:45.543Z,11.13
2024-02-24T19:51:14.950Z,13.17
2024-02-24T19:53:44.032Z,15.53
2024-02-24T19:56:15.594Z,14.00
2024-02-24T19:58:51.711Z,15.17
2024-02-24T20:01:25.145Z,22.33
2024-02-24T20:03:55.906Z,14.53
2024-02-24T20:06:24.738Z,13.00
2024-02-24T20:08:53.699Z,12.37
2024-02-24T20:11:23.852Z,11.07
2024-02-24T20:13:52.739Z,10.67
2024-02-24T20:16:21.769Z,10.93
2024-02-24T20:18:50.966Z,13.03
2024-02-24T20:21:20.057Z,10.07
2024-02-24T20:23:48.736Z,9.83
2024-02-24T20:26:17.406Z,10.03
2024-02-24T20:28:47.657Z,9.53
2024-02-24T20:31:16.305Z,9.63
2024-02-24T20:33:53.376Z,8.47
2024-02-24T20:36:28.695Z,8.80
2024-02-24T20:38:59.786Z,10.60
2024-02-24T20:41:30.496Z,9.77
2024-02-24T20:44:02.345Z,22.67
2024-02-24T20:46:40.071Z,21.10
2024-02-24T20:49:23.310Z,18.57
2024-02-24T20:52:14.163Z,14.20
2024-02-24T20:54:55.466Z,13.10
2024-02-24T21:01:12.460Z,9.43
2024-02-24T21:03:58.440Z,11.10
2024-02-24T21:06:01.137Z,12.97
2024-02-24T21:06:32.069Z,12.93
2024-02-24T21:09:05.947Z,10.20
2024-02-24T21:11:37.901Z,9.77
2024-02-24T21:14:07.888Z,8.30
2024-02-24T21:16:40.977Z,9.90
2024-02-24T21:19:10.270Z,9.40
2024-02-24T21:21:47.115Z,9.17
2024-02-24T21:24:26.666Z,10.63
2024-02-24T21:26:57.491Z,9.87
2024-02-24T21:29:37.974Z,11.13
2024-02-24T21:32:09.067Z,10.97
2024-02-24T21:34:38.654Z,11.60
2024-02-24T21:37:11.028Z,10.77
2024-02-24T21:39:40.070Z,7.87
2024-02-24T21:42:09.509Z,10.67
2024-02-24T21:44:38.568Z,8.27
2024-02-24T21:47:09.262Z,8.00
2024-02-24T21:49:48.834Z,9.67
2024-02-24T21:52:19.308Z,10.33
2024-02-24T21:54:52.827Z,9.67
2024-02-24T21:57:25.942Z,10.33
2024-02-24T21:59:57.526Z,9.83
2024-02-24T22:02:38.794Z,9.43
2024-02-24T22:05:08.978Z,10.30
2024-02-24T22:07:38.162Z,8.80
2024-02-24T22:10:12.693Z,10.27
2024-02-24T22:12:41.667Z,11.13
2024-02-24T22:15:14.028Z,10.37
2024-02-24T22:17:44.478Z,9.50
2024-02-24T22:20:14.057Z,10.03
2024-02-24T22:22:42.763Z,10.60
2024-02-24T22:25:11.827Z,11.50
2024-02-24T22:27:40.571Z,11.73
2024-02-24T22:30:16.619Z,8.67
2024-02-24T22:32:47.300Z,10.63
2024-02-24T22:35:16.395Z,9.63
2024-02-24T22:37:45.219Z,9.43
2024-02-24T22:40:14.110Z,8.77
2024-02-24T22:42:42.700Z,10.63
2024-02-24T22:45:11.696Z,11.63
2024-02-24T22:47:40.951Z,9.57
2024-02-24T22:50:11.893Z,11.97
2024-02-24T22:52:40.308Z,9.07
2024-02-24T22:55:09.859Z,8.47
2024-02-24T22:57:38.315Z,8.67
2024-02-24T23:00:08.137Z,9.87
2024-02-24T23:02:36.641Z,9.70
2024-02-24T23:05:05.535Z,10.70
2024-02-24T23:07:35.920Z,8.97
2024-02-24T23:10:04.512Z,9.90
2024-02-24T23:12:33.023Z,9.13
2024-02-24T23:15:01.537Z,10.90
2024-02-24T23:17:30.519Z,8.67
2024-02-24T23:19:59.014Z,9.77
2024-02-24T23:22:27.786Z,6.80
2024-02-24T23:24:57.759Z,7.63
2024-02-24T23:27:26.210Z,8.70
2024-02-24T23:29:54.631Z,9.93
2024-02-24T23:32:23.297Z,7.47
2024-02-24T23:34:51.822Z,7.47
2024-02-24T23:37:20.332Z,9.23
2024-02-24T23:39:48.687Z,8.00
2024-02-24T23:42:19.600Z,12.50
2024-02-24T23:44:48.241Z,7.80
2024-02-24T23:47:16.723Z,7.83
2024-02-24T23:49:45.280Z,11.13
2024-02-24T23:52:13.710Z,8.60
2024-02-24T23:54:43.276Z,9.67
2024-02-24T23:57:11.883Z,10.87
2024-02-24T23:59:41.741Z,8.93
